Time;durP1;ratioP1;P1;durP2;ratioP2;P2;SDS_P1;SDS_P2;PMS_P1;PMS_P2;Temp;Humidity;BMP_temperature;BMP_pressure;BME280_temperature;BME280_humidity;BME280_pressure;Samples;Min_cycle;Max_cycle;Signal;HPM_P1;HPM_P2
2023/07/10 00:00:56;;;;;;;14.35;6.45;;;;;;;28.38;44.19;100020.59;6067571;23;20025;-89
2023/07/10 00:03:23;;;;;;;11.68;6.22;;;;;;;28.33;44.35;100013.16;6092009;23;20034;-89
2023/07/10 00:05:50;;;;;;;10.85;5.47;;;;;;;28.32;44.20;100019.69;6067908;23;20461;-89
2023/07/10 00:08:17;;;;;;;8.75;5.50;;;;;;;28.29;44.30;100017.47;6043811;23;20045;-90
2023/07/10 00:10:44;;;;;;;9.38;5.63;;;;;;;28.23;44.38;100014.88;6067309;23;20328;-89
2023/07/10 00:13:11;;;;;;;8.80;5.20;;;;;;;28.20;44.29;100010.75;6068314;23;20029;-89
2023/07/10 00:15:39;;;;;;;10.90;6.10;;;;;;;28.20;44.46;100020.84;6067726;23;20026;-89
2023/07/10 00:18:16;;;;;;;10.48;5.22;;;;;;;28.08;44.66;100010.81;6068383;23;20101;-88
2023/07/10 00:20:45;;;;;;;11.35;5.72;;;;;;;28.14;44.80;100009.03;6044041;23;20425;-88
2023/07/10 00:23:12;;;;;;;8.75;5.65;;;;;;;28.13;44.39;100004.63;6021251;23;20017;-88
2023/07/10 00:25:39;;;;;;;10.57;5.43;;;;;;;28.10;44.53;100007.84;6043392;23;20030;-88
2023/07/10 00:28:18;;;;;;;9.30;5.00;;;;;;;27.99;45.06;100001.41;6092044;23;20045;-88
2023/07/10 00:30:46;;;;;;;10.30;6.07;;;;;;;28.08;44.80;100001.81;6043801;23;20101;-89
2023/07/10 00:33:15;;;;;;;11.15;6.22;;;;;;;28.08;44.60;100004.53;6067705;23;20311;-89
2023/07/10 00:35:42;;;;;;;13.10;5.95;;;;;;;28.07;44.65;100005.63;6067484;23;20018;-89
2023/07/10 00:38:18;;;;;;;9.85;5.88;;;;;;;28.00;44.94;100000.31;6092692;23;20026;-88
2023/07/10 00:40:46;;;;;;;10.65;5.10;;;;;;;28.05;44.87;100002.31;6090764;23;20053;-89
2023/07/10 00:43:22;;;;;;;9.77;5.68;;;;;;;28.00;44.76;99989.38;6020525;23;20045;-89
2023/07/10 00:45:51;;;;;;;10.20;5.28;;;;;;;28.01;44.62;99991.06;6068443;23;20080;-89
2023/07/10 00:48:19;;;;;;;9.48;5.72;;;;;;;27.99;44.49;99987.75;6091440;23;20022;-89
2023/07/10 00:50:48;;;;;;;11.27;5.03;;;;;;;27.93;45.17;99975.88;6091216;23;20073;-88
2023/07/10 00:53:36;;;;;;;10.05;5.68;;;;;;;27.76;46.39;99985.94;6044198;23;20450;-88
2023/07/10 00:56:06;;;;;;;10.35;5.80;;;;;;;27.79;46.73;99987.34;6067540;23;20022;-89
2023/07/10 00:58:38;;;;;;;7.72;5.10;;;;;;;27.71;47.38;99986.69;6043998;23;20105;-89
2023/07/10 01:01:08;;;;;;;11.25;6.40;;;;;;;27.69;46.95;99988.00;6090054;23;20029;-88
2023/07/10 01:03:37;;;;;;;13.52;5.82;;;;;;;27.65;47.05;99992.28;6067722;23;20022;-88
2023/07/10 01:06:17;;;;;;;12.93;5.90;;;;;;;27.59;47.25;99994.09;6067666;23;20037;-88
2023/07/10 01:08:49;;;;;;;10.50;6.03;;;;;;;27.62;46.77;100009.13;6091557;23;20032;-88
2023/07/10 01:11:16;;;;;;;;;;;;;;;27.39;47.62;100023.69;6067592;23;20030;-88
2023/07/10 01:13:44;;;;;;;10.80;5.63;;;;;;;27.55;46.90;100027.53;6093928;23;20359;-89
2023/07/10 01:16:11;;;;;;;9.30;5.43;;;;;;;27.56;47.11;100030.03;6069599;23;20022;-88
2023/07/10 01:18:40;;;;;;;10.50;6.22;;;;;;;27.56;46.48;100038.22;6069512;23;20044;-88
2023/07/10 01:21:33;;;;;;;11.32;6.00;;;;;;;27.44;46.84;100049.16;6069813;23;20092;-89
2023/07/10 01:24:03;;;;;;;11.35;6.20;;;;;;;27.52;46.46;100058.84;6039579;23;20029;-88
2023/07/10 01:26:31;;;;;;;11.20;5.60;;;;;;;27.54;46.58;100066.81;6069627;23;20092;-88
2023/07/10 01:28:58;;;;;;;10.73;5.85;;;;;;;27.48;46.45;100069.44;6093360;23;20018;-88
2023/07/10 01:31:27;;;;;;;10.70;6.05;;;;;;;27.46;46.53;100068.03;6022941;23;20081;-88
2023/07/10 01:33:56;;;;;;;11.18;5.72;;;;;;;27.46;46.83;100078.94;6021593;23;20097;-88
2023/07/10 01:36:25;;;;;;;13.90;5.70;;;;;;;27.43;46.99;100079.41;6069552;23;20442;-88
2023/07/10 01:39:19;;;;;;;13.70;6.28;;;;;;;27.30;47.92;100080.50;6069528;23;20449;-89
2023/07/10 01:41:46;;;;;;;13.20;6.22;;;;;;;27.33;47.53;100080.03;6068639;23;20026;-88
2023/07/10 01:44:28;;;;;;;9.95;5.85;;;;;;;27.24;48.21;100090.47;6045436;23;20037;-89
2023/07/10 01:46:56;;;;;;;11.45;6.45;;;;;;;27.31;47.36;100098.53;6092950;23;20022;-88
2023/07/10 01:49:29;;;;;;;10.93;5.90;;;;;;;27.24;47.38;100087.72;6044328;23;20126;-89
2023/07/10 01:51:57;;;;;;;13.77;6.22;;;;;;;27.26;47.28;100082.88;6044747;23;20097;-89
2023/07/10 01:54:24;;;;;;;10.90;5.80;;;;;;;27.24;47.29;100089.63;6045022;23;20030;-89
2023/07/10 01:56:52;;;;;;;8.63;5.43;;;;;;;27.22;47.74;100087.16;6093399;23;20014;-88
2023/07/10 01:59:18;;;;;;;13.70;6.32;;;;;;;27.17;47.63;100078.00;6045101;23;20018;-88
2023/07/10 02:01:46;;;;;;;9.98;5.78;;;;;;;27.19;47.50;100064.97;6069266;23;20333;-88
2023/07/10 02:04:13;;;;;;;11.43;5.93;;;;;;;27.15;47.39;100074.69;6045789;23;20076;-88
2023/07/10 02:06:40;;;;;;;9.25;6.00;;;;;;;27.14;47.32;100083.94;6044480;23;20028;-89
2023/07/10 02:09:07;;;;;;;9.70;6.03;;;;;;;27.11;48.13;100089.84;6091844;23;20029;-88
2023/07/10 02:11:34;;;;;;;13.57;6.28;;;;;;;27.05;49.19;100076.13;6021960;23;20434;-88
2023/07/10 02:14:02;;;;;;;9.95;5.88;;;;;;;27.01;49.58;100068.66;6068854;23;20431;-88
2023/07/10 02:16:29;;;;;;;12.93;6.30;;;;;;;26.97;49.88;100065.59;6092343;23;20062;-88
2023/07/10 02:18:56;;;;;;;9.40;5.88;;;;;;;26.98;49.60;100055.50;6092667;23;20021;-87
2023/07/10 02:21:23;;;;;;;10.75;6.43;;;;;;;26.97;49.51;100057.41;6093015;23;20022;-88
2023/07/10 02:23:50;;;;;;;9.98;5.60;;;;;;;26.98;49.36;100052.78;6067533;23;20030;-88
2023/07/10 02:26:17;;;;;;;9.25;5.50;;;;;;;26.96;49.47;100047.56;6069176;23;20052;-89
2023/07/10 02:28:44;;;;;;;10.00;5.82;;;;;;;26.96;49.00;100044.00;6068848;23;20017;-88
2023/07/10 02:31:13;;;;;;;13.38;6.60;;;;;;;26.94;48.95;100046.13;6069022;23;20026;-88
2023/07/10 02:33:40;;;;;;;14.25;6.10;;;;;;;26.94;48.87;100044.22;6021723;23;20030;-88
2023/07/10 02:36:07;;;;;;;11.63;6.55;;;;;;;26.94;48.74;100040.69;6045545;23;20026;-89
2023/07/10 02:38:33;;;;;;;12.30;6.65;;;;;;;26.96;48.29;100042.09;6044491;23;20038;-88
2023/07/10 02:41:02;;;;;;;10.88;6.60;;;;;;;26.93;48.18;100039.03;6069114;23;20097;-88
2023/07/10 02:43:28;;;;;;;12.85;6.35;;;;;;;26.91;48.16;100033.81;6068573;23;20417;-88
2023/07/10 02:45:55;;;;;;;8.98;5.57;;;;;;;26.90;47.94;100040.34;6068727;23;20022;-88
2023/07/10 02:48:22;;;;;;;15.60;6.00;;;;;;;26.87;48.34;100048.16;6092616;23;20018;-88
2023/07/10 02:50:49;;;;;;;12.40;6.18;;;;;;;26.87;48.97;100059.91;6091799;23;20045;-88
2023/07/10 02:53:16;;;;;;;13.57;5.93;;;;;;;26.85;49.03;100062.03;6092256;23;20053;-88
2023/07/10 02:55:43;;;;;;;11.80;6.57;;;;;;;26.84;48.58;100071.25;6069235;23;20021;-88
2023/07/10 02:58:10;;;;;;;8.20;5.82;;;;;;;26.83;48.62;100066.88;6045179;23;20030;-88
2023/07/10 03:00:37;;;;;;;12.13;6.57;;;;;;;26.80;48.76;100068.19;6067136;23;20089;-88
2023/07/10 03:03:04;;;;;;;13.98;6.97;;;;;;;26.83;48.67;100083.22;6092794;23;20461;-87
2023/07/10 03:05:31;;;;;;;13.88;6.38;;;;;;;26.81;48.78;100085.34;6044861;23;20018;-88
2023/07/10 03:07:57;;;;;;;10.77;5.88;;;;;;;26.77;49.18;100092.34;6021426;23;20034;-88
2023/07/10 03:10:24;;;;;;;11.95;6.13;;;;;;;26.74;49.86;100093.66;6069068;23;20037;-88
2023/07/10 03:12:51;;;;;;;10.57;6.78;;;;;;;26.75;50.09;100099.94;6067530;23;20093;-87
2023/07/10 03:15:18;;;;;;;13.23;6.07;;;;;;;26.72;49.79;100094.97;6044314;23;20029;-87
2023/07/10 03:17:45;;;;;;;9.48;6.13;;;;;;;26.73;49.31;100093.88;6044426;23;20097;-88
2023/07/10 03:20:12;;;;;;;13.27;6.70;;;;;;;26.72;49.17;100106.69;6067200;23;20026;-88
2023/07/10 03:22:39;;;;;;;15.75;6.40;;;;;;;26.69;49.09;100115.34;6045254;23;20033;-87
2023/07/10 03:25:06;;;;;;;10.05;6.40;;;;;;;26.68;49.04;100115.56;6092137;23;20510;-87
2023/07/10 03:27:33;;;;;;;13.70;7.35;;;;;;;26.65;49.36;100122.31;6043899;23;20045;-89
2023/07/10 03:30:00;;;;;;;14.30;7.03;;;;;;;26.62;50.02;100125.50;6020731;23;20022;-87
2023/07/10 03:32:27;;;;;;;12.70;6.22;;;;;;;26.56;50.58;100118.25;6067971;23;20022;-88
2023/07/10 03:34:57;;;;;;;11.27;6.40;;;;;;;26.56;50.72;100118.25;6092219;23;20022;-88
2023/07/10 03:37:25;;;;;;;12.52;6.43;;;;;;;26.54;50.72;100121.22;6068427;23;20390;-88
2023/07/10 03:39:51;;;;;;;13.82;7.20;;;;;;;26.52;50.36;100123.34;6068392;23;20018;-87
2023/07/10 03:42:18;;;;;;;10.52;6.40;;;;;;;26.51;50.29;100105.31;6044447;23;20041;-87
2023/07/10 03:44:46;;;;;;;13.07;6.85;;;;;;;26.52;49.68;100093.38;6091584;23;20026;-88
2023/07/10 03:47:15;;;;;;;11.25;6.82;;;;;;;26.49;49.65;100107.44;6043143;23;20109;-78
2023/07/10 03:49:42;;;;;;;11.20;6.53;;;;;;;26.52;49.31;100108.88;6106236;23;20402;-79
2023/07/10 03:52:09;;;;;;;16.13;7.68;;;;;;;26.53;49.24;100122.28;6111963;23;20714;-79
2023/07/10 03:54:36;;;;;;;12.65;7.00;;;;;;;26.51;49.01;100123.53;6112039;23;20530;-79
2023/07/10 03:57:03;;;;;;;14.85;7.57;;;;;;;26.51;49.17;100140.72;6085648;23;20025;-78
2023/07/10 03:59:29;;;;;;;9.93;6.30;;;;;;;26.54;49.47;100151.19;6085637;23;20450;-79
2023/07/10 04:01:56;;;;;;;11.27;7.45;;;;;;;26.54;49.28;100155.81;6087027;23;20045;-78
2023/07/10 04:04:23;;;;;;;11.93;7.25;;;;;;;26.54;49.05;100166.69;6111272;23;20025;-78
2023/07/10 04:06:50;;;;;;;11.02;7.10;;;;;;;26.53;48.98;100162.28;6084683;23;20101;-79
2023/07/10 04:09:18;;;;;;;12.05;7.70;;;;;;;26.56;49.17;100172.72;6111383;23;20473;-78
2023/07/10 04:11:45;;;;;;;12.57;7.05;;;;;;;26.61;49.08;100161.94;6085907;23;20030;-79
2023/07/10 04:14:11;;;;;;;12.63;6.97;;;;;;;26.62;48.99;100177.25;6062729;23;20026;-78
2023/07/10 04:16:39;;;;;;;12.90;7.13;;;;;;;26.63;49.02;100174.28;6112207;23;20126;-79
2023/07/10 04:19:06;;;;;;;15.30;7.10;;;;;;;26.63;49.30;100181.63;6061976;23;20088;-79
2023/07/10 04:21:34;;;;;;;10.63;6.95;;;;;;;26.67;49.00;100204.63;6037639;23;20044;-79
2023/07/10 04:24:04;;;;;;;13.88;8.07;;;;;;;26.75;49.02;100189.84;6086176;23;20034;-79
2023/07/10 04:26:32;;;;;;;16.25;7.90;;;;;;;26.86;48.69;100194.47;6062516;23;20097;-78
2023/07/10 04:29:03;;;;;;;11.63;7.25;;;;;;;26.96;48.55;100196.63;6060623;23;20034;-78
2023/07/10 04:31:30;;;;;;;15.13;6.93;;;;;;;27.10;48.89;100208.97;6086921;23;20415;-79
2023/07/10 04:33:58;;;;;;;14.52;7.93;;;;;;;27.20;48.83;100190.16;6087215;23;20022;-79
2023/07/10 04:36:25;;;;;;;15.77;7.65;;;;;;;27.27;49.12;100192.75;6087077;23;20034;-79
2023/07/10 04:38:52;;;;;;;16.00;7.63;;;;;;;27.36;48.54;100201.44;6062417;23;20024;-79
2023/07/10 04:41:23;;;;;;;17.73;8.05;;;;;;;27.44;48.34;100203.78;6061938;23;20033;-80
2023/07/10 04:43:49;;;;;;;15.52;7.70;;;;;;;27.52;48.27;100199.88;6065542;23;20024;-88
2023/07/10 04:46:18;;;;;;;12.32;7.47;;;;;;;27.59;48.23;100204.13;6067367;23;20018;-90
2023/07/10 04:48:45;;;;;;;10.60;7.03;;;;;;;27.57;48.09;100203.53;6066449;23;20089;-90
2023/07/10 04:51:13;;;;;;;11.85;7.55;;;;;;;27.51;48.45;100211.88;6067113;23;20458;-89
2023/07/10 04:53:40;;;;;;;15.15;7.97;;;;;;;27.46;48.79;100209.84;6068251;23;20093;-89
2023/07/10 04:56:10;;;;;;;10.80;7.38;;;;;;;27.41;49.28;100201.53;6044275;23;20030;-90
2023/07/10 04:58:54;;;;;;;16.48;7.88;;;;;;;27.31;50.32;100209.50;6068613;23;20025;-89
2023/07/10 05:01:26;;;;;;;14.07;7.65;;;;;;;27.30;49.67;100214.13;6067252;23;20350;-89
2023/07/10 05:03:53;;;;;;;17.88;7.75;;;;;;;27.26;49.76;100207.47;6066833;23;20028;-89
2023/07/10 05:06:20;;;;;;;14.57;7.60;;;;;;;27.20;49.90;100206.53;6091490;23;20579;-90
2023/07/10 05:08:47;;;;;;;14.93;8.00;;;;;;;27.14;50.20;100206.59;6044680;23;20382;-90
2023/07/10 05:11:15;;;;;;;12.80;8.05;;;;;;;27.15;49.96;100203.66;6067097;23;20333;-89
2023/07/10 05:13:41;;;;;;;12.25;8.32;;;;;;;27.16;50.44;100199.00;6043521;23;20358;-90
2023/07/10 05:16:09;;;;;;;15.43;8.55;;;;;;;27.16;50.14;100204.47;6044943;23;20045;-90
2023/07/10 05:18:35;;;;;;;18.35;8.38;;;;;;;27.15;50.07;100200.09;6043808;23;20030;-89
2023/07/10 05:21:02;;;;;;;18.08;9.45;;;;;;;27.14;50.45;100204.69;6042191;23;20046;-90
2023/07/10 05:23:30;;;;;;;17.02;8.55;;;;;;;27.08;50.31;100213.00;6067861;23;20085;-90
2023/07/10 05:26:00;;;;;;;21.33;8.32;;;;;;;27.04;50.21;100216.16;6067211;23;20473;-91
2023/07/10 05:28:28;;;;;;;16.67;8.55;;;;;;;27.05;50.46;100200.69;6043709;23;20040;-90
2023/07/10 05:30:58;;;;;;;17.92;8.88;;;;;;;27.06;50.06;100210.50;6066658;23;20395;-89
2023/07/10 05:33:25;;;;;;;17.50;9.48;;;;;;;27.10;49.68;100202.69;6067666;23;20062;-90
2023/07/10 05:35:54;;;;;;;21.55;9.15;;;;;;;27.14;49.65;100204.69;6091783;23;20042;-89
2023/07/10 05:38:23;;;;;;;21.20;9.98;;;;;;;27.18;49.58;100213.28;6044845;23;20022;-90
2023/07/10 05:40:50;;;;;;;19.27;9.00;;;;;;;27.20;49.99;100203.78;6043281;23;20045;-91
2023/07/10 05:43:17;;;;;;;19.23;8.63;;;;;;;27.22;50.02;100215.31;6043814;23;20056;-89
2023/07/10 05:45:44;;;;;;;17.95;8.88;;;;;;;27.26;50.04;100224.66;6044655;23;20014;-89
2023/07/10 05:48:11;;;;;;;22.67;10.05;;;;;;;27.23;49.72;100216.13;6067291;23;20022;-90
2023/07/10 05:50:37;;;;;;;21.10;9.23;;;;;;;27.22;49.90;100215.31;6066659;23;20033;-90
2023/07/10 05:53:04;;;;;;;18.95;9.50;;;;;;;27.25;49.95;100222.19;6068566;23;20093;-90
2023/07/10 05:55:31;;;;;;;16.85;8.90;;;;;;;27.23;50.46;100232.50;6020529;23;20363;-90
2023/07/10 05:57:58;;;;;;;18.15;9.45;;;;;;;27.24;50.46;100237.69;6044410;23;20430;-90
2023/07/10 06:00:25;;;;;;;19.73;8.80;;;;;;;27.24;50.66;100239.59;6043912;23;20021;-90
2023/07/10 06:02:52;;;;;;;21.13;9.07;;;;;;;27.26;50.70;100243.75;6069253;23;20048;-90
2023/07/10 06:05:19;;;;;;;17.90;9.10;;;;;;;27.26;50.61;100256.53;6069414;23;20517;-89
2023/07/10 06:07:46;;;;;;;16.27;8.77;;;;;;;27.29;51.00;100256.06;6044346;23;20029;-90
2023/07/10 06:10:13;;;;;;;16.88;9.27;;;;;;;27.33;50.68;100257.28;6092841;23;20030;-89
2023/07/10 06:12:41;;;;;;;17.77;9.35;;;;;;;27.35;50.88;100257.88;6046567;23;20432;-90
2023/07/10 06:15:09;;;;;;;18.50;8.57;;;;;;;27.41;51.06;100256.91;6069803;23;20030;-90
2023/07/10 06:17:36;;;;;;;17.38;8.55;;;;;;;27.44;51.32;100264.63;6068722;23;20084;-90
2023/07/10 06:20:03;;;;;;;19.25;8.57;;;;;;;27.48;51.71;100263.09;6068528;23;21482;-90
2023/07/10 06:22:30;;;;;;;17.63;9.50;;;;;;;27.56;51.92;100247.44;6022339;23;20076;-90
2023/07/10 06:24:57;;;;;;;16.98;8.85;;;;;;;27.62;51.67;100254.66;6045003;23;20347;-91
2023/07/10 06:27:23;;;;;;;18.90;8.93;;;;;;;27.67;51.42;100261.06;6093024;23;20018;-91
2023/07/10 06:29:51;;;;;;;23.30;7.88;;;;;;;27.68;51.31;100254.56;6045348;23;20022;-91
2023/07/10 06:32:19;;;;;;;16.27;8.55;;;;;;;27.70;51.11;100262.47;6045738;23;20026;-91
2023/07/10 06:34:46;;;;;;;16.02;8.48;;;;;;;27.73;51.35;100270.19;6069062;23;20022;-90
2023/07/10 06:37:14;;;;;;;18.70;8.07;;;;;;;27.72;51.72;100260.34;6093031;23;20469;-90
2023/07/10 06:39:40;;;;;;;16.55;9.43;;;;;;;27.75;51.58;100259.88;6067882;23;20096;-91
2023/07/10 06:42:07;;;;;;;19.55;8.88;;;;;;;27.74;51.73;100258.22;6069407;23;20101;-90
2023/07/10 06:44:34;;;;;;;22.55;9.75;;;;;;;27.76;51.69;100264.28;6044343;23;20077;-90
2023/07/10 06:47:01;;;;;;;15.48;8.50;;;;;;;27.80;51.83;100259.97;6068488;23;20313;-90
2023/07/10 06:49:27;;;;;;;16.85;8.75;;;;;;;27.82;51.80;100254.31;6044728;23;20077;-90
2023/07/10 06:51:55;;;;;;;18.20;8.52;;;;;;;27.86;51.68;100250.88;6067990;23;20350;-91
2023/07/10 06:54:21;;;;;;;13.75;8.23;;;;;;;27.90;51.47;100243.03;6068848;23;20046;-89
2023/07/10 06:56:48;;;;;;;16.77;8.60;;;;;;;27.92;51.37;100257.28;6069228;23;20022;-89
2023/07/10 06:59:21;;;;;;;20.20;9.32;;;;;;;27.98;50.92;100258.22;6067013;23;20204;-90
2023/07/10 07:01:48;;;;;;;15.02;7.97;;;;;;;27.92;50.83;100260.00;6045423;23;20073;-89
2023/07/10 07:04:15;;;;;;;16.67;8.20;;;;;;;27.97;51.34;100260.13;6068862;23;20022;-90
2023/07/10 07:06:42;;;;;;;17.38;7.80;;;;;;;28.00;51.22;100261.53;6092756;23;20164;-90
2023/07/10 07:09:09;;;;;;;15.55;9.00;;;;;;;28.00;51.56;100247.88;6067990;23;20084;-89
2023/07/10 07:11:35;;;;;;;13.65;8.18;;;;;;;28.03;51.27;100259.16;6067431;23;20092;-90
2023/07/10 07:14:02;;;;;;;16.27;9.18;;;;;;;28.07;51.22;100263.06;6069150;23;20026;-90
2023/07/10 07:16:29;;;;;;;14.15;8.35;;;;;;;28.02;51.02;100248.47;6067938;23;20053;-90
2023/07/10 07:18:56;;;;;;;16.80;8.45;;;;;;;28.05;50.93;100264.38;6043670;23;20049;-90
2023/07/10 07:21:37;;;;;;;24.03;8.77;;;;;;;28.08;51.18;100266.63;6046920;23;20453;-90
2023/07/10 07:24:04;;;;;;;20.77;9.18;;;;;;;28.05;51.17;100278.84;6045190;23;20022;-89
2023/07/10 07:26:31;;;;;;;19.95;8.80;;;;;;;28.05;51.04;100289.75;6091684;23;20057;-90
2023/07/10 07:28:58;;;;;;;19.55;9.40;;;;;;;28.05;51.23;100292.50;6067426;23;20037;-90
2023/07/10 07:31:25;;;;;;;18.98;9.05;;;;;;;28.09;51.32;100288.22;6021527;23;20017;-90
2023/07/10 07:33:52;;;;;;;18.33;9.20;;;;;;;28.13;51.47;100283.94;6068577;23;20044;-91
2023/07/10 07:36:18;;;;;;;18.00;9.25;;;;;;;28.19;51.35;100293.09;6020801;23;20122;-91
2023/07/10 07:38:45;;;;;;;17.50;9.50;;;;;;;28.20;51.30;100283.81;6068449;23;20021;-90
2023/07/10 07:41:12;;;;;;;17.50;9.55;;;;;;;28.22;51.12;100287.13;6068250;23;20044;-91
2023/07/10 07:43:39;;;;;;;19.90;10.35;;;;;;;28.20;51.17;100281.06;6068702;23;20037;-92
2023/07/10 07:46:06;;;;;;;17.15;9.07;;;;;;;28.22;51.12;100286.31;6068166;23;20145;-91
2023/07/10 07:48:33;;;;;;;18.77;10.27;;;;;;;28.25;51.58;100288.56;6021237;23;20030;-90
2023/07/10 07:51:03;;;;;;;20.58;9.35;;;;;;;28.26;51.44;100291.03;6091568;23;20101;-92
2023/07/10 07:53:32;;;;;;;13.93;8.88;;;;;;;28.29;51.61;100292.44;6068824;23;20381;-90
2023/07/10 07:55:59;;;;;;;21.40;9.77;;;;;;;28.28;51.43;100301.72;6068082;23;20026;-89
2023/07/10 07:58:27;;;;;;;20.45;10.50;;;;;;;28.35;51.22;100305.97;6044676;23;20319;-91
2023/07/10 08:00:54;;;;;;;22.73;10.30;;;;;;;28.29;51.29;100306.94;6066694;23;20022;-90
2023/07/10 08:03:21;;;;;;;19.88;10.40;;;;;;;28.26;51.10;100301.13;6044404;23;20022;-91
2023/07/10 08:05:48;;;;;;;21.40;11.38;;;;;;;28.30;51.26;100310.50;6068169;23;20088;-92
2023/07/10 08:08:15;;;;;;;22.05;10.55;;;;;;;28.32;51.54;100301.00;6044482;23;20025;-90
2023/07/10 08:10:48;;;;;;;22.42;10.25;;;;;;;28.38;51.47;100307.41;6044450;23;20069;-92
2023/07/10 08:13:17;;;;;;;18.48;9.85;;;;;;;28.37;51.52;100300.28;6022039;23;20022;-93
2023/07/10 08:15:44;;;;;;;17.05;10.10;;;;;;;28.39;51.12;100302.75;6068993;23;20028;-90
2023/07/10 08:18:11;;;;;;;17.42;9.98;;;;;;;28.44;50.71;100308.31;6044016;23;20025;-92
2023/07/10 08:20:38;;;;;;;20.52;10.23;;;;;;;28.45;50.79;100313.59;6042467;23;20030;-91
2023/07/10 08:23:05;;;;;;;17.70;10.73;;;;;;;28.44;50.77;100302.84;6043752;23;20021;-90
2023/07/10 08:25:32;;;;;;;21.85;11.00;;;;;;;28.45;50.92;100302.66;6044718;23;20022;-91
2023/07/10 08:28:00;;;;;;;19.42;11.20;;;;;;;28.45;51.04;100310.84;6092574;23;20029;-92
2023/07/10 08:30:27;;;;;;;24.15;11.25;;;;;;;28.46;51.07;100303.47;6044990;23;20076;-92
2023/07/10 08:32:54;;;;;;;21.38;11.45;;;;;;;28.49;51.37;100300.25;6021489;23;20093;-89
2023/07/10 08:35:22;;;;;;;24.40;12.27;;;;;;;28.50;51.08;100307.41;6044446;23;20022;-92
2023/07/10 08:37:49;;;;;;;25.88;12.35;;;;;;;28.51;51.42;100307.13;6044242;23;20395;-91
2023/07/10 08:40:23;;;;;;;24.00;12.02;;;;;;;28.50;51.39;100308.22;6068244;23;20291;-90
2023/07/10 08:42:50;;;;;;;18.27;11.32;;;;;;;28.52;51.11;100313.44;6091646;23;20045;-90
2023/07/10 08:45:29;;;;;;;23.40;11.75;;;;;;;28.50;51.25;100316.41;6067721;23;20040;-91
2023/07/10 08:48:19;;;;;;;26.50;12.35;;;;;;;28.58;51.95;100323.41;6020041;23;20025;-90
2023/07/10 08:50:47;;;;;;;22.33;12.77;;;;;;;28.54;51.05;100317.56;6090646;23;20037;-91
2023/07/10 08:53:18;;;;;;;18.23;11.95;;;;;;;28.53;51.32;100323.31;6067191;23;20120;-90
2023/07/10 08:55:55;;;;;;;23.55;12.23;;;;;;;28.52;51.38;100322.47;6043814;23;20049;-89
2023/07/10 08:58:27;;;;;;;20.58;11.80;;;;;;;28.55;51.26;100330.19;6068261;23;20391;-90
2023/07/10 09:01:01;;;;;;;24.02;14.05;;;;;;;28.58;52.11;100328.88;6042463;23;20022;-90
2023/07/10 09:03:39;;;;;;;27.95;14.18;;;;;;;28.59;51.89;100326.97;6067379;23;20101;-89
2023/07/10 09:06:19;;;;;;;19.73;12.50;;;;;;;28.61;51.95;100317.44;6091477;23;20081;-90
2023/07/10 09:08:51;;;;;;;27.33;15.10;;;;;;;28.65;52.35;100318.63;6019743;23;20021;-89
2023/07/10 09:11:18;;;;;;;25.92;12.32;;;;;;;28.70;51.50;100321.47;6066898;23;20021;-89
2023/07/10 09:13:55;;;;;;;21.15;11.20;;;;;;;28.72;51.55;100305.63;6044206;23;20036;-89
2023/07/10 09:16:23;;;;;;;19.10;11.57;;;;;;;28.77;51.41;100297.53;6044222;23;20026;-92
2023/07/10 09:18:53;;;;;;;20.52;11.70;;;;;;;28.80;50.68;100312.59;6020876;23;20075;-91
2023/07/10 09:21:25;;;;;;;24.10;13.05;;;;;;;28.86;51.16;100317.09;6067370;23;20021;-91
2023/07/10 09:23:51;;;;;;;22.50;11.68;;;;;;;28.77;51.28;100322.13;6044701;23;20022;-90
2023/07/10 09:26:21;;;;;;;26.70;12.20;;;;;;;28.81;50.99;100321.66;6044208;23;20028;-91
2023/07/10 09:29:00;;;;;;;18.13;11.52;;;;;;;28.66;51.28;100316.72;6044677;23;20037;-91
2023/07/10 09:31:48;;;;;;;21.70;12.48;;;;;;;28.75;51.28;100313.38;6044183;23;20024;-90
2023/07/10 09:34:19;;;;;;;22.30;12.25;;;;;;;28.68;51.23;100315.41;6044974;23;20342;-90
2023/07/10 09:36:53;;;;;;;20.47;12.03;;;;;;;28.64;50.98;100324.31;6093587;23;20331;-91
2023/07/10 09:39:20;;;;;;;22.08;11.57;;;;;;;28.68;51.60;100333.72;6046052;23;20041;-89
2023/07/10 09:41:47;;;;;;;26.88;12.63;;;;;;;28.73;51.52;100336.53;6069323;23;20025;-90
2023/07/10 09:44:21;;;;;;;21.55;12.10;;;;;;;28.63;50.99;100328.16;6045462;23;20026;-91
2023/07/10 09:46:49;;;;;;;25.38;13.25;;;;;;;28.61;50.51;100333.84;6046209;23;20053;-90
2023/07/10 09:49:22;;;;;;;26.02;12.23;;;;;;;28.54;50.95;100322.22;6045699;23;20025;-90
2023/07/10 09:51:56;;;;;;;19.97;12.17;;;;;;;28.56;50.92;100331.81;6045419;23;20025;-90
2023/07/10 09:54:24;;;;;;;16.90;11.55;;;;;;;28.65;51.25;100321.38;6044789;23;20108;-89
2023/07/10 09:56:53;;;;;;;26.40;13.35;;;;;;;28.76;50.99;100306.81;6069863;23;20026;-90
2023/07/10 09:59:26;;;;;;;20.95;12.57;;;;;;;28.82;50.79;100302.25;6044956;23;20018;-91
2023/07/10 10:01:54;;;;;;;25.27;13.63;;;;;;;28.92;50.94;100302.44;6022590;23;20022;-92
2023/07/10 10:04:27;;;;;;;19.98;12.10;;;;;;;28.92;50.90;100315.28;6046217;23;20370;-92
2023/07/10 10:07:05;;;;;;;19.10;12.40;;;;;;;28.95;51.00;100303.84;6045791;23;20431;-92
2023/07/10 10:09:34;;;;;;;23.15;13.27;;;;;;;28.91;50.38;100297.25;6068612;23;20014;-91
2023/07/10 10:12:10;;;;;;;21.42;12.55;;;;;;;28.88;50.47;100295.84;6069499;23;20018;-90
2023/07/10 10:15:14;;;;;;;22.45;13.32;;;;;;;28.77;50.38;100311.19;6045187;23;20026;-91
2023/07/10 10:17:42;;;;;;;25.10;13.65;;;;;;;28.92;50.83;100302.44;6021103;23;20025;-90
2023/07/10 10:20:21;;;;;;;25.30;14.27;;;;;;;28.88;50.34;100311.41;6044844;23;20655;-91
2023/07/10 10:22:48;;;;;;;23.33;13.43;;;;;;;28.94;50.58;100296.75;6044369;23;20450;-90
2023/07/10 10:25:16;;;;;;;23.40;13.27;;;;;;;28.97;50.35;100296.25;6069187;23;20041;-90
2023/07/10 10:28:11;;;;;;;24.33;14.10;;;;;;;28.87;50.25;100307.81;6045216;23;20434;-91
2023/07/10 10:30:45;;;;;;;22.17;13.63;;;;;;;28.91;50.63;100302.72;6092224;23;20386;-91
2023/07/10 10:33:45;;;;;;;22.15;14.27;;;;;;;28.90;50.64;100303.78;6044836;23;20092;-91
2023/07/10 10:36:25;;;;;;;23.50;14.25;;;;;;;28.94;50.65;100294.84;6068329;23;20305;-90
2023/07/10 10:38:56;;;;;;;19.77;13.48;;;;;;;29.08;50.48;100292.66;6020979;23;20045;-91
2023/07/10 10:41:50;;;;;;;23.95;13.73;;;;;;;29.05;50.13;100287.66;6044945;23;20021;-89
2023/07/10 10:44:58;;;;;;;24.08;13.95;;;;;;;28.99;50.47;100289.47;6067348;23;20097;-91
2023/07/10 10:47:37;;;;;;;23.35;13.65;;;;;;;29.14;50.10;100282.66;5976454;23;20057;-90
2023/07/10 10:50:38;;;;;;;22.67;14.10;;;;;;;29.09;50.22;100288.03;6067180;23;20052;-90
2023/07/10 10:53:31;;;;;;;27.58;15.65;;;;;;;28.98;49.81;100290.56;6067202;23;20424;-89
2023/07/10 10:56:18;;;;;;;31.23;15.80;;;;;;;28.93;50.01;100284.16;6068111;23;20069;-93
2023/07/10 10:59:12;;;;;;;26.33;15.63;;;;;;;28.98;50.27;100270.59;6068592;23;20021;-91
2023/07/10 11:01:46;;;;;;;23.50;15.75;;;;;;;29.06;50.17;100269.38;6066963;23;20323;-91
2023/07/10 11:04:21;;;;;;;27.20;15.85;;;;;;;29.02;50.12;100262.72;6045721;23;20022;-90
2023/07/10 11:06:53;;;;;;;22.10;14.68;;;;;;;29.02;50.02;100266.25;6044513;23;20029;-90
2023/07/10 11:09:29;;;;;;;21.92;15.40;;;;;;;29.02;50.04;100260.78;6067510;23;20018;-91
2023/07/10 11:11:57;;;;;;;22.98;14.88;;;;;;;29.09;49.85;100255.22;6044439;23;20026;-90
2023/07/10 11:14:24;;;;;;;29.40;14.85;;;;;;;29.14;49.76;100258.03;6045100;23;20026;-91
2023/07/10 11:16:53;;;;;;;26.13;15.60;;;;;;;29.13;49.51;100265.41;6068868;23;20025;-91
2023/07/10 11:19:24;;;;;;;21.92;14.15;;;;;;;29.15;49.74;100262.41;6067640;23;20037;-91
2023/07/10 11:21:52;;;;;;;23.73;14.47;;;;;;;29.19;49.84;100255.38;6067749;23;20088;-92
2023/07/10 11:24:25;;;;;;;27.77;16.00;;;;;;;29.27;49.58;100248.66;6045528;23;20042;-91
2023/07/10 11:26:53;;;;;;;21.38;13.30;;;;;;;29.24;49.37;100233.56;6091931;23;20105;-91
2023/07/10 11:29:36;;;;;;;22.80;14.90;;;;;;;29.22;49.58;100233.00;6068633;23;20113;-91